sensor_id;sensor_type;location;lat;lon;timestamp;P1;durP1;ratioP1;P2;durP2;ratioP2
45338;SDS011;31071;51.478;5.710;2022-07-23T00:01:32;7.38;;;5.93;;
45338;SDS011;31071;51.478;5.710;2022-07-23T00:03:58;12.63;;;6.25;;
45338;SDS011;31071;51.478;5.710;2022-07-23T00:06:24;11.40;;;6.38;;
45338;SDS011;31071;51.478;5.710;2022-07-23T00:08:50;8.43;;;6.35;;
45338;SDS011;31071;51.478;5.710;2022-07-23T00:11:15;11.63;;;6.47;;
45338;SDS011;31071;51.478;5.710;2022-07-23T00:13:41;12.20;;;6.25;;
45338;SDS011;31071;51.478;5.710;2022-07-23T00:16:07;9.40;;;6.55;;
45338;SDS011;31071;51.478;5.710;2022-07-23T00:18:33;8.13;;;6.57;;
45338;SDS011;31071;51.478;5.710;2022-07-23T00:20:59;11.30;;;7.40;;
45338;SDS011;31071;51.478;5.710;2022-07-23T00:23:24;12.00;;;7.32;;
45338;SDS011;31071;51.478;5.710;2022-07-23T00:25:50;12.90;;;8.10;;
45338;SDS011;31071;51.478;5.710;2022-07-23T00:28:17;9.02;;;6.70;;
45338;SDS011;31071;51.478;5.710;2022-07-23T00:30:43;10.80;;;6.65;;
45338;SDS011;31071;51.478;5.710;2022-07-23T00:33:09;9.27;;;7.63;;
45338;SDS011;31071;51.478;5.710;2022-07-23T00:35:36;10.27;;;7.18;;
45338;SDS011;31071;51.478;5.710;2022-07-23T00:38:07;8.50;;;6.85;;
45338;SDS011;31071;51.478;5.710;2022-07-23T00:40:34;9.10;;;6.75;;
45338;SDS011;31071;51.478;5.710;2022-07-23T00:43:01;9.75;;;7.43;;
45338;SDS011;31071;51.478;5.710;2022-07-23T00:45:27;11.27;;;7.35;;
45338;SDS011;31071;51.478;5.710;2022-07-23T00:47:57;9.35;;;7.95;;
45338;SDS011;31071;51.478;5.710;2022-07-23T00:50:23;10.00;;;7.70;;
45338;SDS011;31071;51.478;5.710;2022-07-23T00:52:48;10.02;;;7.85;;
45338;SDS011;31071;51.478;5.710;2022-07-23T00:55:14;12.07;;;7.72;;
45338;SDS011;31071;51.478;5.710;2022-07-23T00:57:40;11.15;;;7.53;;
45338;SDS011;31071;51.478;5.710;2022-07-23T01:00:07;10.40;;;7.70;;
45338;SDS011;31071;51.478;5.710;2022-07-23T01:02:35;13.65;;;8.43;;
45338;SDS011;31071;51.478;5.710;2022-07-23T01:05:02;9.32;;;7.60;;
45338;SDS011;31071;51.478;5.710;2022-07-23T01:07:28;14.35;;;8.57;;
45338;SDS011;31071;51.478;5.710;2022-07-23T01:09:54;15.32;;;7.90;;
45338;SDS011;31071;51.478;5.710;2022-07-23T01:12:20;10.60;;;7.53;;
45338;SDS011;31071;51.478;5.710;2022-07-23T01:14:52;11.73;;;8.20;;
45338;SDS011;31071;51.478;5.710;2022-07-23T01:17:19;11.38;;;8.38;;
45338;SDS011;31071;51.478;5.710;2022-07-23T01:19:45;11.07;;;8.68;;
45338;SDS011;31071;51.478;5.710;2022-07-23T01:22:10;13.27;;;8.70;;
45338;SDS011;31071;51.478;5.710;2022-07-23T01:24:36;11.38;;;8.10;;
45338;SDS011;31071;51.478;5.710;2022-07-23T01:29:32;12.02;;;8.80;;
45338;SDS011;31071;51.478;5.710;2022-07-23T01:31:57;11.85;;;8.20;;
45338;SDS011;31071;51.478;5.710;2022-07-23T01:34:23;10.88;;;8.18;;
45338;SDS011;31071;51.478;5.710;2022-07-23T01:36:48;11.45;;;8.60;;
45338;SDS011;31071;51.478;5.710;2022-07-23T01:39:14;13.48;;;8.75;;
45338;SDS011;31071;51.478;5.710;2022-07-23T01:41:39;9.52;;;8.50;;
45338;SDS011;31071;51.478;5.710;2022-07-23T01:44:05;15.48;;;8.70;;
45338;SDS011;31071;51.478;5.710;2022-07-23T01:46:31;10.80;;;8.27;;
45338;SDS011;31071;51.478;5.710;2022-07-23T01:48:57;11.80;;;8.05;;
45338;SDS011;31071;51.478;5.710;2022-07-23T01:51:22;11.95;;;8.75;;
45338;SDS011;31071;51.478;5.710;2022-07-23T01:53:48;14.10;;;9.13;;
45338;SDS011;31071;51.478;5.710;2022-07-23T01:56:13;16.63;;;9.38;;
45338;SDS011;31071;51.478;5.710;2022-07-23T01:58:40;13.82;;;9.50;;
45338;SDS011;31071;51.478;5.710;2022-07-23T02:01:05;14.82;;;9.80;;
45338;SDS011;31071;51.478;5.710;2022-07-23T02:03:31;11.88;;;9.65;;
45338;SDS011;31071;51.478;5.710;2022-07-23T02:05:56;14.15;;;9.98;;
45338;SDS011;31071;51.478;5.710;2022-07-23T02:08:22;16.08;;;10.07;;
45338;SDS011;31071;51.478;5.710;2022-07-23T02:10:48;18.02;;;10.40;;
45338;SDS011;31071;51.478;5.710;2022-07-23T02:13:16;15.68;;;9.15;;
45338;SDS011;31071;51.478;5.710;2022-07-23T02:15:41;18.75;;;10.30;;
45338;SDS011;31071;51.478;5.710;2022-07-23T02:18:21;13.30;;;9.85;;
45338;SDS011;31071;51.478;5.710;2022-07-23T02:20:46;13.25;;;10.07;;
45338;SDS011;31071;51.478;5.710;2022-07-23T02:23:12;13.02;;;10.10;;
45338;SDS011;31071;51.478;5.710;2022-07-23T02:25:38;13.50;;;9.77;;
45338;SDS011;31071;51.478;5.710;2022-07-23T02:28:03;16.13;;;10.35;;
45338;SDS011;31071;51.478;5.710;2022-07-23T02:30:29;11.80;;;9.05;;
45338;SDS011;31071;51.478;5.710;2022-07-23T02:32:54;14.15;;;9.65;;
45338;SDS011;31071;51.478;5.710;2022-07-23T02:35:20;16.05;;;9.98;;
45338;SDS011;31071;51.478;5.710;2022-07-23T02:37:47;13.65;;;10.75;;
45338;SDS011;31071;51.478;5.710;2022-07-23T02:40:12;14.73;;;10.35;;
45338;SDS011;31071;51.478;5.710;2022-07-23T02:42:38;15.63;;;10.32;;
45338;SDS011;31071;51.478;5.710;2022-07-23T02:45:04;14.70;;;10.30;;
45338;SDS011;31071;51.478;5.710;2022-07-23T02:49:59;19.83;;;10.90;;
45338;SDS011;31071;51.478;5.710;2022-07-23T02:52:25;13.73;;;10.82;;
45338;SDS011;31071;51.478;5.710;2022-07-23T02:54:50;14.68;;;10.07;;
45338;SDS011;31071;51.478;5.710;2022-07-23T02:57:16;11.85;;;10.02;;
45338;SDS011;31071;51.478;5.710;2022-07-23T02:59:41;11.63;;;9.95;;
45338;SDS011;31071;51.478;5.710;2022-07-23T03:02:07;16.63;;;9.80;;
45338;SDS011;31071;51.478;5.710;2022-07-23T03:04:32;13.55;;;9.98;;
45338;SDS011;31071;51.478;5.710;2022-07-23T03:06:58;15.43;;;10.70;;
45338;SDS011;31071;51.478;5.710;2022-07-23T03:09:23;15.93;;;11.82;;
45338;SDS011;31071;51.478;5.710;2022-07-23T03:11:49;17.13;;;11.45;;
45338;SDS011;31071;51.478;5.710;2022-07-23T03:14:14;16.98;;;10.90;;
45338;SDS011;31071;51.478;5.710;2022-07-23T03:16:41;15.52;;;11.25;;
45338;SDS011;31071;51.478;5.710;2022-07-23T03:19:06;14.18;;;11.18;;
45338;SDS011;31071;51.478;5.710;2022-07-23T03:21:32;15.93;;;10.98;;
45338;SDS011;31071;51.478;5.710;2022-07-23T03:23:58;14.95;;;11.55;;
45338;SDS011;31071;51.478;5.710;2022-07-23T03:26:24;14.50;;;10.95;;
45338;SDS011;31071;51.478;5.710;2022-07-23T03:28:50;17.15;;;11.38;;
45338;SDS011;31071;51.478;5.710;2022-07-23T03:31:17;14.60;;;10.55;;
45338;SDS011;31071;51.478;5.710;2022-07-23T03:33:42;15.77;;;11.38;;
45338;SDS011;31071;51.478;5.710;2022-07-23T03:36:08;16.10;;;10.77;;
45338;SDS011;31071;51.478;5.710;2022-07-23T03:38:34;15.30;;;11.60;;
45338;SDS011;31071;51.478;5.710;2022-07-23T03:40:59;17.52;;;9.95;;
45338;SDS011;31071;51.478;5.710;2022-07-23T03:43:25;13.25;;;10.60;;
45338;SDS011;31071;51.478;5.710;2022-07-23T03:45:50;11.50;;;10.27;;
45338;SDS011;31071;51.478;5.710;2022-07-23T03:48:16;11.80;;;10.00;;
45338;SDS011;31071;51.478;5.710;2022-07-23T03:50:42;15.07;;;11.15;;
45338;SDS011;31071;51.478;5.710;2022-07-23T03:53:07;12.80;;;10.68;;
45338;SDS011;31071;51.478;5.710;2022-07-23T03:55:33;13.70;;;10.90;;
45338;SDS011;31071;51.478;5.710;2022-07-23T03:58:17;16.45;;;11.30;;
45338;SDS011;31071;51.478;5.710;2022-07-23T04:00:42;11.55;;;10.25;;
45338;SDS011;31071;51.478;5.710;2022-07-23T04:03:08;14.18;;;10.93;;
45338;SDS011;31071;51.478;5.710;2022-07-23T04:05:34;14.45;;;11.38;;
45338;SDS011;31071;51.478;5.710;2022-07-23T04:08:00;14.20;;;11.10;;
45338;SDS011;31071;51.478;5.710;2022-07-23T04:10:26;16.85;;;11.88;;
45338;SDS011;31071;51.478;5.710;2022-07-23T04:12:51;14.07;;;10.75;;
45338;SDS011;31071;51.478;5.710;2022-07-23T04:15:17;16.48;;;11.70;;
45338;SDS011;31071;51.478;5.710;2022-07-23T04:17:44;16.83;;;12.80;;
45338;SDS011;31071;51.478;5.710;2022-07-23T04:20:11;18.70;;;11.68;;
45338;SDS011;31071;51.478;5.710;2022-07-23T04:22:37;15.95;;;12.18;;
45338;SDS011;31071;51.478;5.710;2022-07-23T04:25:03;16.00;;;11.85;;
45338;SDS011;31071;51.478;5.710;2022-07-23T04:27:37;15.48;;;12.43;;
45338;SDS011;31071;51.478;5.710;2022-07-23T04:30:02;16.98;;;12.00;;
45338;SDS011;31071;51.478;5.710;2022-07-23T04:32:28;15.25;;;11.73;;
45338;SDS011;31071;51.478;5.710;2022-07-23T04:34:54;15.85;;;11.50;;
45338;SDS011;31071;51.478;5.710;2022-07-23T04:37:20;12.38;;;10.90;;
45338;SDS011;31071;51.478;5.710;2022-07-23T04:39:46;15.43;;;11.73;;
45338;SDS011;31071;51.478;5.710;2022-07-23T04:42:11;13.48;;;11.00;;
45338;SDS011;31071;51.478;5.710;2022-07-23T04:44:37;15.95;;;11.02;;
45338;SDS011;31071;51.478;5.710;2022-07-23T04:47:02;13.73;;;11.48;;
45338;SDS011;31071;51.478;5.710;2022-07-23T04:49:28;14.85;;;11.15;;
45338;SDS011;31071;51.478;5.710;2022-07-23T04:51:53;14.85;;;10.93;;
45338;SDS011;31071;51.478;5.710;2022-07-23T04:54:19;12.80;;;11.50;;
45338;SDS011;31071;51.478;5.710;2022-07-23T04:56:44;15.15;;;12.05;;
45338;SDS011;31071;51.478;5.710;2022-07-23T04:59:10;14.55;;;12.32;;
45338;SDS011;31071;51.478;5.710;2022-07-23T05:01:35;16.02;;;12.95;;
45338;SDS011;31071;51.478;5.710;2022-07-23T05:04:01;15.98;;;13.02;;
45338;SDS011;31071;51.478;5.710;2022-07-23T05:06:26;13.07;;;10.90;;
45338;SDS011;31071;51.478;5.710;2022-07-23T05:08:52;17.23;;;12.18;;
45338;SDS011;31071;51.478;5.710;2022-07-23T05:11:17;19.83;;;11.75;;
45338;SDS011;31071;51.478;5.710;2022-07-23T05:13:43;18.35;;;12.30;;
45338;SDS011;31071;51.478;5.710;2022-07-23T05:16:08;15.60;;;12.05;;
45338;SDS011;31071;51.478;5.710;2022-07-23T05:18:34;15.90;;;11.20;;
45338;SDS011;31071;51.478;5.710;2022-07-23T05:20:59;14.50;;;10.60;;
45338;SDS011;31071;51.478;5.710;2022-07-23T05:23:25;17.33;;;12.50;;
45338;SDS011;31071;51.478;5.710;2022-07-23T05:25:50;15.63;;;12.50;;
45338;SDS011;31071;51.478;5.710;2022-07-23T05:28:16;14.82;;;11.40;;
45338;SDS011;31071;51.478;5.710;2022-07-23T05:30:41;13.60;;;11.75;;
45338;SDS011;31071;51.478;5.710;2022-07-23T05:33:07;13.60;;;11.63;;
45338;SDS011;31071;51.478;5.710;2022-07-23T05:35:33;13.27;;;10.73;;
45338;SDS011;31071;51.478;5.710;2022-07-23T05:38:00;15.60;;;11.85;;
45338;SDS011;31071;51.478;5.710;2022-07-23T05:40:26;13.80;;;11.27;;
45338;SDS011;31071;51.478;5.710;2022-07-23T05:42:52;17.02;;;11.82;;
45338;SDS011;31071;51.478;5.710;2022-07-23T05:45:17;13.93;;;11.63;;
45338;SDS011;31071;51.478;5.710;2022-07-23T05:47:44;13.45;;;11.15;;
45338;SDS011;31071;51.478;5.710;2022-07-23T05:50:14;14.68;;;11.27;;
45338;SDS011;31071;51.478;5.710;2022-07-23T05:52:40;16.17;;;11.02;;
45338;SDS011;31071;51.478;5.710;2022-07-23T05:55:07;17.10;;;12.82;;
45338;SDS011;31071;51.478;5.710;2022-07-23T06:00:05;16.48;;;12.25;;
45338;SDS011;31071;51.478;5.710;2022-07-23T06:02:32;15.98;;;12.35;;
45338;SDS011;31071;51.478;5.710;2022-07-23T06:04:57;15.85;;;12.50;;
45338;SDS011;31071;51.478;5.710;2022-07-23T06:07:23;17.25;;;12.95;;
45338;SDS011;31071;51.478;5.710;2022-07-23T06:09:49;16.30;;;12.77;;
45338;SDS011;31071;51.478;5.710;2022-07-23T06:12:17;17.23;;;12.70;;
45338;SDS011;31071;51.478;5.710;2022-07-23T06:14:43;17.00;;;12.43;;
45338;SDS011;31071;51.478;5.710;2022-07-23T06:17:09;13.32;;;11.45;;
45338;SDS011;31071;51.478;5.710;2022-07-23T06:19:34;17.60;;;12.68;;
45338;SDS011;31071;51.478;5.710;2022-07-23T06:22:00;15.55;;;11.90;;
45338;SDS011;31071;51.478;5.710;2022-07-23T06:24:25;16.75;;;12.35;;
45338;SDS011;31071;51.478;5.710;2022-07-23T06:26:52;16.52;;;12.57;;
45338;SDS011;31071;51.478;5.710;2022-07-23T06:29:18;13.95;;;12.40;;
45338;SDS011;31071;51.478;5.710;2022-07-23T06:31:43;13.77;;;11.60;;
45338;SDS011;31071;51.478;5.710;2022-07-23T06:34:09;17.20;;;11.90;;
45338;SDS011;31071;51.478;5.710;2022-07-23T06:36:34;14.60;;;10.98;;
45338;SDS011;31071;51.478;5.710;2022-07-23T06:39:00;14.02;;;10.55;;
45338;SDS011;31071;51.478;5.710;2022-07-23T06:41:25;12.43;;;10.30;;
45338;SDS011;31071;51.478;5.710;2022-07-23T06:43:51;13.05;;;9.73;;
45338;SDS011;31071;51.478;5.710;2022-07-23T06:46:16;12.82;;;9.85;;
45338;SDS011;31071;51.478;5.710;2022-07-23T06:48:42;14.80;;;9.88;;
45338;SDS011;31071;51.478;5.710;2022-07-23T06:51:08;12.27;;;9.38;;
45338;SDS011;31071;51.478;5.710;2022-07-23T06:53:33;12.55;;;8.90;;
45338;SDS011;31071;51.478;5.710;2022-07-23T06:55:59;10.57;;;8.43;;
45338;SDS011;31071;51.478;5.710;2022-07-23T06:58:24;10.05;;;8.98;;
45338;SDS011;31071;51.478;5.710;2022-07-23T07:00:50;10.43;;;7.38;;
45338;SDS011;31071;51.478;5.710;2022-07-23T07:03:17;11.95;;;7.95;;
45338;SDS011;31071;51.478;5.710;2022-07-23T07:05:42;9.18;;;6.13;;
45338;SDS011;31071;51.478;5.710;2022-07-23T07:08:08;9.30;;;5.88;;
45338;SDS011;31071;51.478;5.710;2022-07-23T07:10:33;9.38;;;5.95;;
45338;SDS011;31071;51.478;5.710;2022-07-23T07:12:59;10.25;;;6.68;;
45338;SDS011;31071;51.478;5.710;2022-07-23T07:15:25;10.65;;;6.40;;
45338;SDS011;31071;51.478;5.710;2022-07-23T07:18:00;8.05;;;5.55;;
45338;SDS011;31071;51.478;5.710;2022-07-23T07:20:26;7.38;;;5.75;;
45338;SDS011;31071;51.478;5.710;2022-07-23T07:22:51;9.55;;;5.88;;
45338;SDS011;31071;51.478;5.710;2022-07-23T07:25:17;7.07;;;5.30;;
45338;SDS011;31071;51.478;5.710;2022-07-23T07:27:43;8.85;;;6.18;;
45338;SDS011;31071;51.478;5.710;2022-07-23T07:30:11;9.32;;;5.15;;
45338;SDS011;31071;51.478;5.710;2022-07-23T07:32:37;7.57;;;5.10;;
45338;SDS011;31071;51.478;5.710;2022-07-23T07:35:04;7.80;;;5.70;;
45338;SDS011;31071;51.478;5.710;2022-07-23T07:37:43;5.20;;;4.43;;
45338;SDS011;31071;51.478;5.710;2022-07-23T07:40:08;5.70;;;4.85;;
45338;SDS011;31071;51.478;5.710;2022-07-23T07:42:34;6.30;;;4.82;;
45338;SDS011;31071;51.478;5.710;2022-07-23T07:45:00;11.90;;;6.40;;
45338;SDS011;31071;51.478;5.710;2022-07-23T07:47:25;5.28;;;4.78;;
45338;SDS011;31071;51.478;5.710;2022-07-23T07:49:51;6.05;;;5.28;;
45338;SDS011;31071;51.478;5.710;2022-07-23T07:52:17;6.93;;;4.97;;
45338;SDS011;31071;51.478;5.710;2022-07-23T07:54:42;6.45;;;5.32;;
45338;SDS011;31071;51.478;5.710;2022-07-23T07:57:08;8.40;;;5.55;;
45338;SDS011;31071;51.478;5.710;2022-07-23T07:59:34;8.05;;;5.78;;
45338;SDS011;31071;51.478;5.710;2022-07-23T08:02:00;7.13;;;5.38;;
45338;SDS011;31071;51.478;5.710;2022-07-23T08:04:27;8.88;;;6.15;;
45338;SDS011;31071;51.478;5.710;2022-07-23T08:06:52;9.73;;;6.20;;
45338;SDS011;31071;51.478;5.710;2022-07-23T08:09:18;5.90;;;5.22;;
45338;SDS011;31071;51.478;5.710;2022-07-23T08:11:43;7.25;;;5.57;;
45338;SDS011;31071;51.478;5.710;2022-07-23T08:14:09;8.13;;;5.78;;
45338;SDS011;31071;51.478;5.710;2022-07-23T08:16:36;7.43;;;5.95;;
45338;SDS011;31071;51.478;5.710;2022-07-23T08:19:01;11.80;;;6.68;;
45338;SDS011;31071;51.478;5.710;2022-07-23T08:21:27;7.57;;;6.55;;
45338;SDS011;31071;51.478;5.710;2022-07-23T08:23:52;9.43;;;6.05;;
45338;SDS011;31071;51.478;5.710;2022-07-23T08:26:24;5.97;;;5.30;;
45338;SDS011;31071;51.478;5.710;2022-07-23T08:28:49;6.18;;;5.13;;
45338;SDS011;31071;51.478;5.710;2022-07-23T08:31:15;8.57;;;5.57;;
45338;SDS011;31071;51.478;5.710;2022-07-23T08:33:42;9.32;;;6.18;;
45338;SDS011;31071;51.478;5.710;2022-07-23T08:36:08;11.68;;;5.43;;
45338;SDS011;31071;51.478;5.710;2022-07-23T08:38:33;7.78;;;5.47;;
45338;SDS011;31071;51.478;5.710;2022-07-23T08:41:00;7.63;;;5.65;;
45338;SDS011;31071;51.478;5.710;2022-07-23T08:43:28;5.82;;;5.18;;
45338;SDS011;31071;51.478;5.710;2022-07-23T08:45:56;10.75;;;6.30;;
45338;SDS011;31071;51.478;5.710;2022-07-23T08:48:27;8.77;;;5.78;;
45338;SDS011;31071;51.478;5.710;2022-07-23T08:50:58;9.43;;;5.75;;
45338;SDS011;31071;51.478;5.710;2022-07-23T08:53:25;8.30;;;5.75;;
45338;SDS011;31071;51.478;5.710;2022-07-23T08:55:53;9.23;;;6.10;;
45338;SDS011;31071;51.478;5.710;2022-07-23T08:58:20;8.38;;;5.88;;
45338;SDS011;31071;51.478;5.710;2022-07-23T09:00:46;7.70;;;6.55;;
45338;SDS011;31071;51.478;5.710;2022-07-23T09:03:15;11.25;;;6.85;;
45338;SDS011;31071;51.478;5.710;2022-07-23T09:05:43;7.65;;;6.18;;
45338;SDS011;31071;51.478;5.710;2022-07-23T09:08:10;8.23;;;5.55;;
45338;SDS011;31071;51.478;5.710;2022-07-23T09:10:42;6.10;;;4.25;;
45338;SDS011;31071;51.478;5.710;2022-07-23T09:13:23;5.95;;;3.47;;
45338;SDS011;31071;51.478;5.710;2022-07-23T09:16:12;8.25;;;4.15;;
45338;SDS011;31071;51.478;5.710;2022-07-23T09:19:05;6.00;;;3.90;;
45338;SDS011;31071;51.478;5.710;2022-07-23T09:21:35;4.90;;;3.65;;
45338;SDS011;31071;51.478;5.710;2022-07-23T09:26:35;6.35;;;4.55;;
45338;SDS011;31071;51.478;5.710;2022-07-23T09:34:20;4.80;;;3.65;;
45338;SDS011;31071;51.478;5.710;2022-07-23T09:36:47;7.30;;;4.35;;
45338;SDS011;31071;51.478;5.710;2022-07-23T09:39:14;4.43;;;3.70;;
45338;SDS011;31071;51.478;5.710;2022-07-23T09:41:43;4.82;;;3.80;;
45338;SDS011;31071;51.478;5.710;2022-07-23T09:44:12;6.22;;;4.65;;
45338;SDS011;31071;51.478;5.710;2022-07-23T09:46:40;8.00;;;4.03;;
45338;SDS011;31071;51.478;5.710;2022-07-23T09:49:12;6.95;;;3.80;;
45338;SDS011;31071;51.478;5.710;2022-07-23T09:51:49;6.10;;;3.83;;
45338;SDS011;31071;51.478;5.710;2022-07-23T09:56:52;5.90;;;3.60;;
45338;SDS011;31071;51.478;5.710;2022-07-23T09:59:18;6.72;;;3.85;;
45338;SDS011;31071;51.478;5.710;2022-07-23T10:01:50;5.15;;;4.53;;
45338;SDS011;31071;51.478;5.710;2022-07-23T10:04:17;4.63;;;4.20;;
45338;SDS011;31071;51.478;5.710;2022-07-23T10:06:43;5.88;;;3.20;;
45338;SDS011;31071;51.478;5.710;2022-07-23T10:09:10;6.13;;;3.80;;
45338;SDS011;31071;51.478;5.710;2022-07-23T10:11:41;5.03;;;4.43;;
45338;SDS011;31071;51.478;5.710;2022-07-23T10:14:06;6.25;;;4.15;;
45338;SDS011;31071;51.478;5.710;2022-07-23T10:16:35;4.68;;;3.50;;
45338;SDS011;31071;51.478;5.710;2022-07-23T10:19:03;6.38;;;5.40;;
45338;SDS011;31071;51.478;5.710;2022-07-23T10:21:40;6.13;;;4.93;;
45338;SDS011;31071;51.478;5.710;2022-07-23T10:24:35;6.35;;;4.45;;
45338;SDS011;31071;51.478;5.710;2022-07-23T10:27:07;4.35;;;3.95;;
45338;SDS011;31071;51.478;5.710;2022-07-23T10:30:02;4.47;;;3.50;;
45338;SDS011;31071;51.478;5.710;2022-07-23T10:32:43;6.00;;;3.88;;
45338;SDS011;31071;51.478;5.710;2022-07-23T10:35:33;4.97;;;3.72;;
45338;SDS011;31071;51.478;5.710;2022-07-23T10:38:18;3.85;;;3.38;;
45338;SDS011;31071;51.478;5.710;2022-07-23T10:41:01;4.07;;;3.67;;
45338;SDS011;31071;51.478;5.710;2022-07-23T10:43:28;4.85;;;3.70;;
45338;SDS011;31071;51.478;5.710;2022-07-23T10:45:55;3.47;;;3.05;;
45338;SDS011;31071;51.478;5.710;2022-07-23T10:48:25;3.95;;;3.20;;
45338;SDS011;31071;51.478;5.710;2022-07-23T11:02:38;5.95;;;3.67;;
45338;SDS011;31071;51.478;5.710;2022-07-23T11:05:06;4.13;;;3.53;;
45338;SDS011;31071;51.478;5.710;2022-07-23T11:07:37;3.22;;;2.40;;
45338;SDS011;31071;51.478;5.710;2022-07-23T11:10:31;2.33;;;2.13;;
45338;SDS011;31071;51.478;5.710;2022-07-23T11:32:04;1.95;;;1.83;;
45338;SDS011;31071;51.478;5.710;2022-07-23T11:34:43;4.47;;;2.00;;
45338;SDS011;31071;51.478;5.710;2022-07-23T11:39:58;2.08;;;1.88;;
45338;SDS011;31071;51.478;5.710;2022-07-23T11:42:28;3.33;;;2.80;;
45338;SDS011;31071;51.478;5.710;2022-07-23T11:44:54;2.97;;;2.50;;
45338;SDS011;31071;51.478;5.710;2022-07-23T11:47:23;5.43;;;3.03;;
45338;SDS011;31071;51.478;5.710;2022-07-23T11:49:52;2.97;;;2.78;;
45338;SDS011;31071;51.478;5.710;2022-07-23T11:52:19;3.58;;;3.03;;
45338;SDS011;31071;51.478;5.710;2022-07-23T12:02:21;3.95;;;2.97;;
45338;SDS011;31071;51.478;5.710;2022-07-23T12:04:47;4.10;;;3.80;;
45338;SDS011;31071;51.478;5.710;2022-07-23T12:07:25;3.50;;;3.20;;
45338;SDS011;31071;51.478;5.710;2022-07-23T12:09:51;3.17;;;2.70;;
45338;SDS011;31071;51.478;5.710;2022-07-23T12:12:17;3.60;;;2.70;;
45338;SDS011;31071;51.478;5.710;2022-07-23T12:14:55;3.72;;;2.65;;
45338;SDS011;31071;51.478;5.710;2022-07-23T12:17:33;3.90;;;3.08;;
45338;SDS011;31071;51.478;5.710;2022-07-23T12:20:00;5.80;;;3.78;;
45338;SDS011;31071;51.478;5.710;2022-07-23T12:22:45;5.78;;;3.97;;
45338;SDS011;31071;51.478;5.710;2022-07-23T12:25:14;3.78;;;2.67;;
45338;SDS011;31071;51.478;5.710;2022-07-23T12:27:42;3.80;;;3.38;;
45338;SDS011;31071;51.478;5.710;2022-07-23T12:32:56;3.70;;;2.65;;
45338;SDS011;31071;51.478;5.710;2022-07-23T12:35:22;3.35;;;2.90;;
45338;SDS011;31071;51.478;5.710;2022-07-23T12:37:59;3.50;;;3.20;;
45338;SDS011;31071;51.478;5.710;2022-07-23T12:40:37;2.90;;;2.60;;
45338;SDS011;31071;51.478;5.710;2022-07-23T12:43:09;2.70;;;2.50;;
45338;SDS011;31071;51.478;5.710;2022-07-23T12:45:52;3.15;;;2.85;;
45338;SDS011;31071;51.478;5.710;2022-07-23T12:50:59;4.43;;;3.20;;
45338;SDS011;31071;51.478;5.710;2022-07-23T12:53:30;2.90;;;2.70;;
45338;SDS011;31071;51.478;5.710;2022-07-23T12:56:08;4.35;;;2.83;;
45338;SDS011;31071;51.478;5.710;2022-07-23T13:01:24;4.93;;;2.55;;
45338;SDS011;31071;51.478;5.710;2022-07-23T13:03:59;3.80;;;2.42;;
45338;SDS011;31071;51.478;5.710;2022-07-23T13:06:28;2.95;;;2.60;;
45338;SDS011;31071;51.478;5.710;2022-07-23T13:08:57;5.07;;;2.40;;
45338;SDS011;31071;51.478;5.710;2022-07-23T13:11:23;2.85;;;2.55;;
45338;SDS011;31071;51.478;5.710;2022-07-23T13:13:48;4.32;;;2.80;;
45338;SDS011;31071;51.478;5.710;2022-07-23T13:16:14;2.55;;;2.35;;
45338;SDS011;31071;51.478;5.710;2022-07-23T13:18:40;3.72;;;3.15;;
45338;SDS011;31071;51.478;5.710;2022-07-23T13:21:06;3.58;;;2.75;;
45338;SDS011;31071;51.478;5.710;2022-07-23T13:23:31;3.05;;;2.60;;
45338;SDS011;31071;51.478;5.710;2022-07-23T13:25:57;3.40;;;3.10;;
45338;SDS011;31071;51.478;5.710;2022-07-23T13:28:23;4.20;;;3.20;;
45338;SDS011;31071;51.478;5.710;2022-07-23T13:30:49;4.45;;;3.10;;
45338;SDS011;31071;51.478;5.710;2022-07-23T13:33:19;3.58;;;3.28;;
45338;SDS011;31071;51.478;5.710;2022-07-23T13:35:46;4.18;;;2.75;;
45338;SDS011;31071;51.478;5.710;2022-07-23T13:38:12;4.03;;;2.88;;
45338;SDS011;31071;51.478;5.710;2022-07-23T13:40:39;3.38;;;3.08;;
45338;SDS011;31071;51.478;5.710;2022-07-23T13:43:10;3.50;;;3.20;;
45338;SDS011;31071;51.478;5.710;2022-07-23T13:45:39;4.15;;;2.90;;
45338;SDS011;31071;51.478;5.710;2022-07-23T13:50:37;4.80;;;3.67;;
45338;SDS011;31071;51.478;5.710;2022-07-23T13:53:04;4.05;;;2.75;;
45338;SDS011;31071;51.478;5.710;2022-07-23T13:55:32;3.42;;;3.13;;
45338;SDS011;31071;51.478;5.710;2022-07-23T13:57:58;5.03;;;3.83;;
45338;SDS011;31071;51.478;5.710;2022-07-23T14:00:24;4.15;;;3.00;;
45338;SDS011;31071;51.478;5.710;2022-07-23T14:02:50;3.55;;;3.25;;
45338;SDS011;31071;51.478;5.710;2022-07-23T14:05:16;4.75;;;3.85;;
45338;SDS011;31071;51.478;5.710;2022-07-23T14:07:42;3.85;;;3.53;;
45338;SDS011;31071;51.478;5.710;2022-07-23T14:10:09;4.20;;;3.90;;
45338;SDS011;31071;51.478;5.710;2022-07-23T14:12:35;4.85;;;3.83;;
45338;SDS011;31071;51.478;5.710;2022-07-23T14:15:01;3.70;;;3.40;;
45338;SDS011;31071;51.478;5.710;2022-07-23T14:17:29;5.25;;;3.25;;
45338;SDS011;31071;51.478;5.710;2022-07-23T14:19:54;5.18;;;3.88;;
45338;SDS011;31071;51.478;5.710;2022-07-23T14:22:20;4.75;;;3.72;;
45338;SDS011;31071;51.478;5.710;2022-07-23T14:24:46;4.47;;;3.40;;
45338;SDS011;31071;51.478;5.710;2022-07-23T14:27:11;5.82;;;4.40;;
45338;SDS011;31071;51.478;5.710;2022-07-23T14:29:37;4.10;;;3.67;;
45338;SDS011;31071;51.478;5.710;2022-07-23T14:32:02;4.53;;;3.60;;
45338;SDS011;31071;51.478;5.710;2022-07-23T14:34:28;3.67;;;3.35;;
45338;SDS011;31071;51.478;5.710;2022-07-23T14:36:54;6.60;;;3.33;;
45338;SDS011;31071;51.478;5.710;2022-07-23T14:39:20;5.70;;;2.80;;
45338;SDS011;31071;51.478;5.710;2022-07-23T14:41:46;4.00;;;2.83;;
45338;SDS011;31071;51.478;5.710;2022-07-23T14:44:11;8.27;;;3.30;;
45338;SDS011;31071;51.478;5.710;2022-07-23T14:46:37;4.78;;;3.35;;
45338;SDS011;31071;51.478;5.710;2022-07-23T14:49:02;4.22;;;2.85;;
45338;SDS011;31071;51.478;5.710;2022-07-23T14:51:29;2.97;;;2.75;;
45338;SDS011;31071;51.478;5.710;2022-07-23T14:53:54;6.03;;;3.75;;
45338;SDS011;31071;51.478;5.710;2022-07-23T14:56:20;5.72;;;3.55;;
45338;SDS011;31071;51.478;5.710;2022-07-23T14:58:46;5.18;;;3.38;;
45338;SDS011;31071;51.478;5.710;2022-07-23T15:01:11;4.45;;;3.80;;
45338;SDS011;31071;51.478;5.710;2022-07-23T15:03:37;4.20;;;3.10;;
45338;SDS011;31071;51.478;5.710;2022-07-23T15:06:03;4.68;;;2.67;;
45338;SDS011;31071;51.478;5.710;2022-07-23T15:08:29;5.03;;;2.83;;
45338;SDS011;31071;51.478;5.710;2022-07-23T15:10:55;5.00;;;3.03;;
45338;SDS011;31071;51.478;5.710;2022-07-23T15:13:21;4.47;;;2.88;;
45338;SDS011;31071;51.478;5.710;2022-07-23T15:15:46;4.40;;;3.10;;
45338;SDS011;31071;51.478;5.710;2022-07-23T15:18:12;3.35;;;3.05;;
45338;SDS011;31071;51.478;5.710;2022-07-23T15:20:38;3.65;;;3.17;;
45338;SDS011;31071;51.478;5.710;2022-07-23T15:23:06;5.35;;;3.20;;
45338;SDS011;31071;51.478;5.710;2022-07-23T15:25:32;4.10;;;3.15;;
45338;SDS011;31071;51.478;5.710;2022-07-23T15:27:58;4.82;;;2.80;;
45338;SDS011;31071;51.478;5.710;2022-07-23T15:30:24;3.40;;;3.10;;
45338;SDS011;31071;51.478;5.710;2022-07-23T15:32:51;4.20;;;3.00;;
45338;SDS011;31071;51.478;5.710;2022-07-23T15:35:17;5.68;;;3.35;;
45338;SDS011;31071;51.478;5.710;2022-07-23T15:37:58;4.82;;;3.30;;
45338;SDS011;31071;51.478;5.710;2022-07-23T15:40:24;3.22;;;2.92;;
45338;SDS011;31071;51.478;5.710;2022-07-23T15:42:50;4.03;;;2.72;;
45338;SDS011;31071;51.478;5.710;2022-07-23T15:45:15;4.55;;;3.50;;
45338;SDS011;31071;51.478;5.710;2022-07-23T15:47:41;3.95;;;2.63;;
45338;SDS011;31071;51.478;5.710;2022-07-23T15:50:11;3.20;;;2.80;;